Airfield :







YOU CAN JOIN US ON...

 
LOGIN :

Register | Disclaimer

   EN    FR    IT 

 









Legend :    VFR   Marginal VFR   IFR   Intensive IFR   Very Intensive IFR
Visi :
Ceiling :
>= 8 km
>= 3000ft
5 to 8 km
1000 to 3000 ft
1500m to 5 km
500 to 1000 ft
800 to 1500m
200 to 500 ft
< 800m
< 200 ft
Symbols :   Thunderstorms  Fog  Heavy snow  Heavy precipitations  Wind > 20 kt






- Airport Elevation : 26 ft
- IATA code : CAY


SOCA - Rochambeau

CURRENT METAR :
  • 190600Z AUTO 25002KT 9000 BKN022 OVC032 23/23 Q1012 NOSIG

EXPIRED METARs :
  • 190530Z AUTO 00000KT 9999 SCT022 23/23 Q1012 NOSIG
  • 190500Z AUTO 00000KT CAVOK 23/23 Q1012 NOSIG
  • 190430Z AUTO 12002KT CAVOK 24/24 Q1012 NOSIG
  • 190400Z AUTO 13003KT CAVOK 24/24 Q1012 NOSIG
  • 190330Z AUTO 16002KT CAVOK 24/24 Q1012 NOSIG

TAF TAF SOCA
Valid from the 18 at 18:00 until the 19 at 18:00 UTC


181600Z 1818/1918 09010KT 9999 SCT040
BECMG 1822/1824 VRB03KT CAVOK
BECMG 1912/1914 09010KT
PROB30
TEMPO 1916/1918 4000 SHRA FEW015TCU
SOOO FIR / South America



MET'MAP, your aeronautical weather chart ! - Copyright ORBIFLY December 2007 - Disclaimer

ORBIFLY MET'MAP TEAM :

Programming & Development : Alexandra Zaïnal
Concept & original design : Baudouin d'Aumeries
Assistance for programming : Marc-Olivier Méhu
Technical & hardware support : Manuel Goepfert

Contact : metmap@orbifly.com




SOURCES & CREDITS :

   NOAA